sensor_id;sensor_type;location;lat;lon;timestamp;temperature;humidity
21487;DHT22;10905;50.822;4.336;2024-03-08T00:01:41;6.80;99.90
21487;DHT22;10905;50.822;4.336;2024-03-08T00:04:06;6.90;99.90
21487;DHT22;10905;50.822;4.336;2024-03-08T00:06:33;6.80;99.90
21487;DHT22;10905;50.822;4.336;2024-03-08T00:08:59;6.90;99.90
21487;DHT22;10905;50.822;4.336;2024-03-08T00:11:25;6.80;99.90
21487;DHT22;10905;50.822;4.336;2024-03-08T00:13:52;6.80;99.90
21487;DHT22;10905;50.822;4.336;2024-03-08T00:16:18;6.70;99.90
21487;DHT22;10905;50.822;4.336;2024-03-08T00:18:48;6.70;99.90
21487;DHT22;10905;50.822;4.336;2024-03-08T00:21:14;6.70;99.90
21487;DHT22;10905;50.822;4.336;2024-03-08T00:23:40;6.70;99.90
21487;DHT22;10905;50.822;4.336;2024-03-08T00:26:06;6.70;99.90
21487;DHT22;10905;50.822;4.336;2024-03-08T00:28:32;6.60;99.90
21487;DHT22;10905;50.822;4.336;2024-03-08T00:30:59;6.60;99.90
21487;DHT22;10905;50.822;4.336;2024-03-08T00:33:25;6.60;99.90
21487;DHT22;10905;50.822;4.336;2024-03-08T00:35:51;6.50;99.90
21487;DHT22;10905;50.822;4.336;2024-03-08T00:38:16;6.50;99.90
21487;DHT22;10905;50.822;4.336;2024-03-08T00:40:44;6.60;99.90
21487;DHT22;10905;50.822;4.336;2024-03-08T00:43:10;6.50;99.90
21487;DHT22;10905;50.822;4.336;2024-03-08T00:45:35;6.60;99.90
21487;DHT22;10905;50.822;4.336;2024-03-08T00:48:03;6.40;99.90
21487;DHT22;10905;50.822;4.336;2024-03-08T00:50:28;6.30;99.90
21487;DHT22;10905;50.822;4.336;2024-03-08T00:52:54;6.30;99.90
21487;DHT22;10905;50.822;4.336;2024-03-08T00:55:20;6.40;99.90
21487;DHT22;10905;50.822;4.336;2024-03-08T00:57:45;6.40;99.90
21487;DHT22;10905;50.822;4.336;2024-03-08T01:00:12;6.30;99.90
21487;DHT22;10905;50.822;4.336;2024-03-08T01:02:41;6.20;99.90
21487;DHT22;10905;50.822;4.336;2024-03-08T01:05:07;6.20;99.90
21487;DHT22;10905;50.822;4.336;2024-03-08T01:07:34;6.20;99.90
21487;DHT22;10905;50.822;4.336;2024-03-08T01:10:01;6.20;99.90
21487;DHT22;10905;50.822;4.336;2024-03-08T01:12:26;6.20;99.90
21487;DHT22;10905;50.822;4.336;2024-03-08T01:14:52;6.20;99.90
21487;DHT22;10905;50.822;4.336;2024-03-08T01:17:18;6.10;99.90
21487;DHT22;10905;50.822;4.336;2024-03-08T01:19:43;6.20;99.90
21487;DHT22;10905;50.822;4.336;2024-03-08T01:22:10;6.20;99.90
21487;DHT22;10905;50.822;4.336;2024-03-08T01:24:36;6.20;99.90
21487;DHT22;10905;50.822;4.336;2024-03-08T01:27:02;6.10;99.90
21487;DHT22;10905;50.822;4.336;2024-03-08T01:29:28;6.10;99.90
21487;DHT22;10905;50.822;4.336;2024-03-08T01:31:55;6.10;99.90
21487;DHT22;10905;50.822;4.336;2024-03-08T01:34:22;6.10;99.90
21487;DHT22;10905;50.822;4.336;2024-03-08T01:36:48;6.00;99.90
21487;DHT22;10905;50.822;4.336;2024-03-08T01:39:14;6.00;99.90
21487;DHT22;10905;50.822;4.336;2024-03-08T01:41:40;6.00;99.90
21487;DHT22;10905;50.822;4.336;2024-03-08T01:44:06;6.00;99.90
21487;DHT22;10905;50.822;4.336;2024-03-08T01:46:35;6.10;99.90
21487;DHT22;10905;50.822;4.336;2024-03-08T01:49:01;6.10;99.90
21487;DHT22;10905;50.822;4.336;2024-03-08T01:51:28;6.10;99.90
21487;DHT22;10905;50.822;4.336;2024-03-08T01:53:55;6.00;99.90
21487;DHT22;10905;50.822;4.336;2024-03-08T01:56:23;6.00;99.90
21487;DHT22;10905;50.822;4.336;2024-03-08T01:58:51;6.00;99.90
21487;DHT22;10905;50.822;4.336;2024-03-08T02:01:17;5.90;99.90
21487;DHT22;10905;50.822;4.336;2024-03-08T02:03:44;5.90;99.90
21487;DHT22;10905;50.822;4.336;2024-03-08T02:06:14;5.90;99.90
21487;DHT22;10905;50.822;4.336;2024-03-08T02:08:46;5.90;99.90
21487;DHT22;10905;50.822;4.336;2024-03-08T02:11:12;5.90;99.90
21487;DHT22;10905;50.822;4.336;2024-03-08T02:13:38;5.80;99.90
21487;DHT22;10905;50.822;4.336;2024-03-08T02:16:04;5.70;99.90
21487;DHT22;10905;50.822;4.336;2024-03-08T02:18:34;5.80;99.90
21487;DHT22;10905;50.822;4.336;2024-03-08T02:21:01;5.80;99.90
21487;DHT22;10905;50.822;4.336;2024-03-08T02:23:28;5.80;99.90
21487;DHT22;10905;50.822;4.336;2024-03-08T02:25:55;5.80;99.90
21487;DHT22;10905;50.822;4.336;2024-03-08T02:28:22;5.90;99.90
21487;DHT22;10905;50.822;4.336;2024-03-08T02:30:52;5.80;99.90
21487;DHT22;10905;50.822;4.336;2024-03-08T02:33:21;5.70;99.90
21487;DHT22;10905;50.822;4.336;2024-03-08T02:35:48;5.70;99.90
21487;DHT22;10905;50.822;4.336;2024-03-08T02:38:15;5.70;99.90
21487;DHT22;10905;50.822;4.336;2024-03-08T02:40:49;5.70;99.90
21487;DHT22;10905;50.822;4.336;2024-03-08T02:43:16;5.60;99.90
21487;DHT22;10905;50.822;4.336;2024-03-08T02:45:42;5.60;99.90
21487;DHT22;10905;50.822;4.336;2024-03-08T02:48:08;5.60;99.90
21487;DHT22;10905;50.822;4.336;2024-03-08T02:50:34;5.40;99.90
21487;DHT22;10905;50.822;4.336;2024-03-08T02:53:03;5.50;99.90
21487;DHT22;10905;50.822;4.336;2024-03-08T02:55:29;5.50;99.90
21487;DHT22;10905;50.822;4.336;2024-03-08T02:57:55;5.60;99.90
21487;DHT22;10905;50.822;4.336;2024-03-08T03:00:21;5.60;99.90
21487;DHT22;10905;50.822;4.336;2024-03-08T03:02:48;5.40;99.90
21487;DHT22;10905;50.822;4.336;2024-03-08T03:05:17;5.50;99.90
21487;DHT22;10905;50.822;4.336;2024-03-08T03:07:43;5.30;99.90
21487;DHT22;10905;50.822;4.336;2024-03-08T03:10:08;5.20;99.90
21487;DHT22;10905;50.822;4.336;2024-03-08T03:12:34;5.20;99.90
21487;DHT22;10905;50.822;4.336;2024-03-08T03:15:00;5.30;99.90
21487;DHT22;10905;50.822;4.336;2024-03-08T03:17:26;5.30;99.90
21487;DHT22;10905;50.822;4.336;2024-03-08T03:19:52;5.20;99.90
21487;DHT22;10905;50.822;4.336;2024-03-08T03:22:18;5.30;99.90
21487;DHT22;10905;50.822;4.336;2024-03-08T03:24:45;5.20;99.90
21487;DHT22;10905;50.822;4.336;2024-03-08T03:27:12;5.20;99.90
21487;DHT22;10905;50.822;4.336;2024-03-08T03:29:42;5.30;99.90
21487;DHT22;10905;50.822;4.336;2024-03-08T03:32:11;5.10;99.90
21487;DHT22;10905;50.822;4.336;2024-03-08T03:34:37;5.10;99.90
21487;DHT22;10905;50.822;4.336;2024-03-08T03:37:04;5.00;99.90
21487;DHT22;10905;50.822;4.336;2024-03-08T03:39:30;5.00;99.90
21487;DHT22;10905;50.822;4.336;2024-03-08T03:42:00;5.00;99.90
21487;DHT22;10905;50.822;4.336;2024-03-08T03:44:27;4.90;99.90
21487;DHT22;10905;50.822;4.336;2024-03-08T03:46:53;5.00;99.90
21487;DHT22;10905;50.822;4.336;2024-03-08T03:49:19;4.90;99.90
21487;DHT22;10905;50.822;4.336;2024-03-08T03:51:45;5.00;99.90
21487;DHT22;10905;50.822;4.336;2024-03-08T03:54:12;5.00;99.90
21487;DHT22;10905;50.822;4.336;2024-03-08T03:56:38;4.90;99.90
21487;DHT22;10905;50.822;4.336;2024-03-08T03:59:05;4.90;99.90
21487;DHT22;10905;50.822;4.336;2024-03-08T04:01:32;4.80;99.90
21487;DHT22;10905;50.822;4.336;2024-03-08T04:03:57;4.90;99.90
21487;DHT22;10905;50.822;4.336;2024-03-08T04:06:23;4.80;99.90
21487;DHT22;10905;50.822;4.336;2024-03-08T04:08:49;4.90;99.90
21487;DHT22;10905;50.822;4.336;2024-03-08T04:11:16;4.90;99.90
21487;DHT22;10905;50.822;4.336;2024-03-08T04:13:42;4.80;99.90
21487;DHT22;10905;50.822;4.336;2024-03-08T04:16:08;4.80;99.90
21487;DHT22;10905;50.822;4.336;2024-03-08T04:18:34;4.70;99.90
21487;DHT22;10905;50.822;4.336;2024-03-08T04:21:04;4.70;99.90
21487;DHT22;10905;50.822;4.336;2024-03-08T04:23:32;4.70;99.90
21487;DHT22;10905;50.822;4.336;2024-03-08T04:25:59;4.70;99.90
21487;DHT22;10905;50.822;4.336;2024-03-08T04:28:24;4.80;99.90
21487;DHT22;10905;50.822;4.336;2024-03-08T04:30:51;4.60;99.90
21487;DHT22;10905;50.822;4.336;2024-03-08T04:33:17;4.70;99.90
21487;DHT22;10905;50.822;4.336;2024-03-08T04:35:43;4.70;99.90
21487;DHT22;10905;50.822;4.336;2024-03-08T04:38:11;4.80;99.90
21487;DHT22;10905;50.822;4.336;2024-03-08T04:40:36;4.80;99.90
21487;DHT22;10905;50.822;4.336;2024-03-08T04:43:02;4.80;99.90
21487;DHT22;10905;50.822;4.336;2024-03-08T04:45:28;4.80;99.90
21487;DHT22;10905;50.822;4.336;2024-03-08T04:47:53;4.80;99.90
21487;DHT22;10905;50.822;4.336;2024-03-08T04:50:19;4.80;99.90
21487;DHT22;10905;50.822;4.336;2024-03-08T04:52:45;4.70;99.90
21487;DHT22;10905;50.822;4.336;2024-03-08T04:55:10;4.70;99.90
21487;DHT22;10905;50.822;4.336;2024-03-08T04:57:36;4.70;99.90
21487;DHT22;10905;50.822;4.336;2024-03-08T05:00:03;4.70;99.90
21487;DHT22;10905;50.822;4.336;2024-03-08T05:02:33;4.70;99.90
21487;DHT22;10905;50.822;4.336;2024-03-08T05:04:58;4.70;99.90
21487;DHT22;10905;50.822;4.336;2024-03-08T05:07:24;4.70;99.90
21487;DHT22;10905;50.822;4.336;2024-03-08T05:09:49;4.60;99.90
21487;DHT22;10905;50.822;4.336;2024-03-08T05:12:18;4.60;99.90
21487;DHT22;10905;50.822;4.336;2024-03-08T05:14:47;4.70;99.90
21487;DHT22;10905;50.822;4.336;2024-03-08T05:17:16;4.60;99.90
21487;DHT22;10905;50.822;4.336;2024-03-08T05:19:45;4.60;99.90
21487;DHT22;10905;50.822;4.336;2024-03-08T05:22:10;4.50;99.90
21487;DHT22;10905;50.822;4.336;2024-03-08T05:24:36;4.60;99.90
21487;DHT22;10905;50.822;4.336;2024-03-08T05:27:02;4.60;99.90
21487;DHT22;10905;50.822;4.336;2024-03-08T05:29:29;4.60;99.90
21487;DHT22;10905;50.822;4.336;2024-03-08T05:31:55;4.70;99.90
21487;DHT22;10905;50.822;4.336;2024-03-08T05:34:22;4.60;99.90
21487;DHT22;10905;50.822;4.336;2024-03-08T05:36:48;4.60;99.90
21487;DHT22;10905;50.822;4.336;2024-03-08T05:39:16;4.60;99.90
21487;DHT22;10905;50.822;4.336;2024-03-08T05:41:43;4.60;99.90
21487;DHT22;10905;50.822;4.336;2024-03-08T05:44:09;4.60;99.90
21487;DHT22;10905;50.822;4.336;2024-03-08T05:46:35;4.50;99.90
21487;DHT22;10905;50.822;4.336;2024-03-08T05:49:02;4.50;99.90
21487;DHT22;10905;50.822;4.336;2024-03-08T05:51:34;4.50;99.90
21487;DHT22;10905;50.822;4.336;2024-03-08T05:54:01;4.50;99.90
21487;DHT22;10905;50.822;4.336;2024-03-08T05:56:28;4.50;99.90
21487;DHT22;10905;50.822;4.336;2024-03-08T05:58:54;4.50;99.90
21487;DHT22;10905;50.822;4.336;2024-03-08T06:01:20;4.40;99.90
21487;DHT22;10905;50.822;4.336;2024-03-08T06:03:45;4.50;99.90
21487;DHT22;10905;50.822;4.336;2024-03-08T06:06:13;4.50;99.90
21487;DHT22;10905;50.822;4.336;2024-03-08T06:08:39;4.40;99.90
21487;DHT22;10905;50.822;4.336;2024-03-08T06:11:05;4.50;99.90
21487;DHT22;10905;50.822;4.336;2024-03-08T06:13:32;4.40;99.90
21487;DHT22;10905;50.822;4.336;2024-03-08T06:15:59;4.50;99.90
21487;DHT22;10905;50.822;4.336;2024-03-08T06:18:26;4.50;99.90
21487;DHT22;10905;50.822;4.336;2024-03-08T06:20:51;4.50;99.90
21487;DHT22;10905;50.822;4.336;2024-03-08T06:23:18;4.40;99.90
21487;DHT22;10905;50.822;4.336;2024-03-08T06:25:44;4.40;99.90
21487;DHT22;10905;50.822;4.336;2024-03-08T06:28:10;4.50;99.90
21487;DHT22;10905;50.822;4.336;2024-03-08T06:30:36;4.40;99.90
21487;DHT22;10905;50.822;4.336;2024-03-08T06:33:01;4.40;99.90
21487;DHT22;10905;50.822;4.336;2024-03-08T06:35:27;4.30;99.90
21487;DHT22;10905;50.822;4.336;2024-03-08T06:37:53;4.40;99.90
21487;DHT22;10905;50.822;4.336;2024-03-08T06:40:19;4.40;99.90
21487;DHT22;10905;50.822;4.336;2024-03-08T06:42:44;4.50;99.90
21487;DHT22;10905;50.822;4.336;2024-03-08T06:45:11;4.40;99.90
21487;DHT22;10905;50.822;4.336;2024-03-08T06:47:37;4.40;99.90
21487;DHT22;10905;50.822;4.336;2024-03-08T06:50:03;4.40;99.90
21487;DHT22;10905;50.822;4.336;2024-03-08T06:52:29;4.40;99.90
21487;DHT22;10905;50.822;4.336;2024-03-08T06:54:55;4.40;99.90
21487;DHT22;10905;50.822;4.336;2024-03-08T06:57:22;4.40;99.90
21487;DHT22;10905;50.822;4.336;2024-03-08T06:59:48;4.50;99.90
21487;DHT22;10905;50.822;4.336;2024-03-08T07:02:14;4.40;99.90
21487;DHT22;10905;50.822;4.336;2024-03-08T07:04:40;4.40;99.90
21487;DHT22;10905;50.822;4.336;2024-03-08T07:07:06;4.40;99.90
21487;DHT22;10905;50.822;4.336;2024-03-08T07:09:35;4.50;99.90
21487;DHT22;10905;50.822;4.336;2024-03-08T07:12:01;4.50;99.90
21487;DHT22;10905;50.822;4.336;2024-03-08T07:14:27;4.50;99.90
21487;DHT22;10905;50.822;4.336;2024-03-08T07:16:53;4.60;99.90
21487;DHT22;10905;50.822;4.336;2024-03-08T07:19:18;4.70;99.90
21487;DHT22;10905;50.822;4.336;2024-03-08T07:21:45;4.80;99.90
21487;DHT22;10905;50.822;4.336;2024-03-08T07:24:11;4.80;99.90
21487;DHT22;10905;50.822;4.336;2024-03-08T07:26:45;4.70;99.90
21487;DHT22;10905;50.822;4.336;2024-03-08T07:29:15;4.80;99.90
21487;DHT22;10905;50.822;4.336;2024-03-08T07:31:41;4.80;99.90
21487;DHT22;10905;50.822;4.336;2024-03-08T07:34:06;4.80;99.90
21487;DHT22;10905;50.822;4.336;2024-03-08T07:36:33;4.80;99.90
21487;DHT22;10905;50.822;4.336;2024-03-08T07:39:00;4.80;99.90
21487;DHT22;10905;50.822;4.336;2024-03-08T07:41:26;4.90;99.90
21487;DHT22;10905;50.822;4.336;2024-03-08T07:43:51;4.90;99.90
21487;DHT22;10905;50.822;4.336;2024-03-08T07:46:18;5.00;99.90
21487;DHT22;10905;50.822;4.336;2024-03-08T07:48:46;5.20;99.90
21487;DHT22;10905;50.822;4.336;2024-03-08T07:51:12;5.10;99.90
21487;DHT22;10905;50.822;4.336;2024-03-08T07:53:38;5.20;99.90
21487;DHT22;10905;50.822;4.336;2024-03-08T07:56:04;5.20;99.90
21487;DHT22;10905;50.822;4.336;2024-03-08T07:58:34;5.30;99.90
21487;DHT22;10905;50.822;4.336;2024-03-08T08:01:00;5.30;99.90
21487;DHT22;10905;50.822;4.336;2024-03-08T08:03:26;5.30;99.90
21487;DHT22;10905;50.822;4.336;2024-03-08T08:05:52;5.30;99.90
21487;DHT22;10905;50.822;4.336;2024-03-08T08:08:19;5.40;99.90
21487;DHT22;10905;50.822;4.336;2024-03-08T08:10:44;5.40;99.90
21487;DHT22;10905;50.822;4.336;2024-03-08T08:13:10;5.40;99.90
21487;DHT22;10905;50.822;4.336;2024-03-08T08:15:36;5.60;99.90
21487;DHT22;10905;50.822;4.336;2024-03-08T08:18:02;5.60;99.90
21487;DHT22;10905;50.822;4.336;2024-03-08T08:20:30;5.70;99.90
21487;DHT22;10905;50.822;4.336;2024-03-08T08:22:57;5.70;99.90
21487;DHT22;10905;50.822;4.336;2024-03-08T08:25:24;5.80;99.90
21487;DHT22;10905;50.822;4.336;2024-03-08T08:27:50;5.90;99.90
21487;DHT22;10905;50.822;4.336;2024-03-08T08:30:16;5.90;99.90
21487;DHT22;10905;50.822;4.336;2024-03-08T08:32:41;5.90;99.90
21487;DHT22;10905;50.822;4.336;2024-03-08T08:35:08;6.00;99.90
21487;DHT22;10905;50.822;4.336;2024-03-08T08:37:34;6.00;99.90
21487;DHT22;10905;50.822;4.336;2024-03-08T08:40:03;6.10;99.90
21487;DHT22;10905;50.822;4.336;2024-03-08T08:42:38;6.20;99.90
21487;DHT22;10905;50.822;4.336;2024-03-08T08:45:05;6.20;99.90
21487;DHT22;10905;50.822;4.336;2024-03-08T08:47:34;6.20;99.90
21487;DHT22;10905;50.822;4.336;2024-03-08T08:50:00;6.30;99.90
21487;DHT22;10905;50.822;4.336;2024-03-08T08:52:26;6.40;99.90
21487;DHT22;10905;50.822;4.336;2024-03-08T08:54:52;6.50;99.90
21487;DHT22;10905;50.822;4.336;2024-03-08T08:57:17;6.60;99.90
21487;DHT22;10905;50.822;4.336;2024-03-08T08:59:43;6.50;99.90
21487;DHT22;10905;50.822;4.336;2024-03-08T09:02:08;6.50;99.90
21487;DHT22;10905;50.822;4.336;2024-03-08T09:04:34;6.60;99.90
21487;DHT22;10905;50.822;4.336;2024-03-08T09:07:01;6.70;99.90
21487;DHT22;10905;50.822;4.336;2024-03-08T09:09:27;6.70;99.90
21487;DHT22;10905;50.822;4.336;2024-03-08T09:11:52;6.80;99.90
21487;DHT22;10905;50.822;4.336;2024-03-08T09:14:19;6.90;99.90
21487;DHT22;10905;50.822;4.336;2024-03-08T09:16:45;7.00;99.90
21487;DHT22;10905;50.822;4.336;2024-03-08T09:19:13;7.10;99.90
21487;DHT22;10905;50.822;4.336;2024-03-08T09:21:38;7.10;99.90
21487;DHT22;10905;50.822;4.336;2024-03-08T09:24:05;7.20;99.90
21487;DHT22;10905;50.822;4.336;2024-03-08T09:26:32;7.30;99.90
21487;DHT22;10905;50.822;4.336;2024-03-08T09:28:59;7.40;99.90
21487;DHT22;10905;50.822;4.336;2024-03-08T09:31:25;7.50;99.90
21487;DHT22;10905;50.822;4.336;2024-03-08T09:33:51;7.50;99.90
21487;DHT22;10905;50.822;4.336;2024-03-08T09:36:17;7.60;99.90
21487;DHT22;10905;50.822;4.336;2024-03-08T09:38:43;7.70;99.90
21487;DHT22;10905;50.822;4.336;2024-03-08T09:41:09;7.70;99.90
21487;DHT22;10905;50.822;4.336;2024-03-08T09:43:36;7.70;99.90
21487;DHT22;10905;50.822;4.336;2024-03-08T09:46:03;7.70;99.90
21487;DHT22;10905;50.822;4.336;2024-03-08T09:48:29;7.70;99.90
21487;DHT22;10905;50.822;4.336;2024-03-08T09:50:55;7.80;99.90
21487;DHT22;10905;50.822;4.336;2024-03-08T09:53:22;7.70;99.90
21487;DHT22;10905;50.822;4.336;2024-03-08T09:55:48;7.80;99.90
21487;DHT22;10905;50.822;4.336;2024-03-08T09:58:15;7.90;99.90
21487;DHT22;10905;50.822;4.336;2024-03-08T10:00:43;8.00;99.90
21487;DHT22;10905;50.822;4.336;2024-03-08T10:03:09;8.10;99.90
21487;DHT22;10905;50.822;4.336;2024-03-08T10:05:36;8.20;99.90
21487;DHT22;10905;50.822;4.336;2024-03-08T10:08:02;8.30;99.90
21487;DHT22;10905;50.822;4.336;2024-03-08T10:10:28;8.40;99.90
21487;DHT22;10905;50.822;4.336;2024-03-08T10:12:55;8.40;99.90
21487;DHT22;10905;50.822;4.336;2024-03-08T10:15:21;8.40;99.90
21487;DHT22;10905;50.822;4.336;2024-03-08T10:17:46;8.40;99.90
21487;DHT22;10905;50.822;4.336;2024-03-08T10:20:18;8.40;99.90
21487;DHT22;10905;50.822;4.336;2024-03-08T10:22:44;8.50;99.90
21487;DHT22;10905;50.822;4.336;2024-03-08T10:25:11;8.60;99.90
21487;DHT22;10905;50.822;4.336;2024-03-08T10:27:40;8.70;99.90
21487;DHT22;10905;50.822;4.336;2024-03-08T10:30:14;8.60;99.90
21487;DHT22;10905;50.822;4.336;2024-03-08T10:32:41;8.70;99.90
21487;DHT22;10905;50.822;4.336;2024-03-08T10:35:08;8.80;99.90
21487;DHT22;10905;50.822;4.336;2024-03-08T10:37:44;8.90;99.90
21487;DHT22;10905;50.822;4.336;2024-03-08T10:40:18;9.00;99.90
21487;DHT22;10905;50.822;4.336;2024-03-08T10:42:55;9.00;99.90
21487;DHT22;10905;50.822;4.336;2024-03-08T10:45:40;9.00;99.90
21487;DHT22;10905;50.822;4.336;2024-03-08T10:48:31;9.10;99.90
21487;DHT22;10905;50.822;4.336;2024-03-08T10:50:58;9.10;99.90
21487;DHT22;10905;50.822;4.336;2024-03-08T10:53:27;9.20;99.90
21487;DHT22;10905;50.822;4.336;2024-03-08T10:55:53;9.30;99.90
21487;DHT22;10905;50.822;4.336;2024-03-08T10:58:26;9.20;99.90
21487;DHT22;10905;50.822;4.336;2024-03-08T11:00:55;9.40;99.90
21487;DHT22;10905;50.822;4.336;2024-03-08T11:06:21;9.40;99.90
21487;DHT22;10905;50.822;4.336;2024-03-08T11:08:49;9.60;99.90
21487;DHT22;10905;50.822;4.336;2024-03-08T11:11:38;9.70;99.90
21487;DHT22;10905;50.822;4.336;2024-03-08T11:14:43;9.70;99.90
21487;DHT22;10905;50.822;4.336;2024-03-08T11:17:09;9.60;99.90
21487;DHT22;10905;50.822;4.336;2024-03-08T11:19:35;9.60;99.90
21487;DHT22;10905;50.822;4.336;2024-03-08T11:22:02;9.70;99.90
21487;DHT22;10905;50.822;4.336;2024-03-08T11:24:36;9.70;99.90
21487;DHT22;10905;50.822;4.336;2024-03-08T11:27:04;9.80;99.90
21487;DHT22;10905;50.822;4.336;2024-03-08T11:32:15;9.90;99.90
21487;DHT22;10905;50.822;4.336;2024-03-08T11:34:46;9.90;99.90
21487;DHT22;10905;50.822;4.336;2024-03-08T11:37:21;10.00;99.90
21487;DHT22;10905;50.822;4.336;2024-03-08T11:39:47;10.10;99.90
21487;DHT22;10905;50.822;4.336;2024-03-08T11:42:15;10.20;99.90
21487;DHT22;10905;50.822;4.336;2024-03-08T11:44:43;10.20;99.90
21487;DHT22;10905;50.822;4.336;2024-03-08T11:47:10;10.30;99.90
21487;DHT22;10905;50.822;4.336;2024-03-08T11:49:37;10.30;99.90
21487;DHT22;10905;50.822;4.336;2024-03-08T11:52:04;10.30;99.90
21487;DHT22;10905;50.822;4.336;2024-03-08T11:54:30;10.30;99.90
21487;DHT22;10905;50.822;4.336;2024-03-08T11:56:57;10.40;99.90
21487;DHT22;10905;50.822;4.336;2024-03-08T11:59:30;10.50;99.90
21487;DHT22;10905;50.822;4.336;2024-03-08T12:02:06;10.50;99.90
21487;DHT22;10905;50.822;4.336;2024-03-08T12:04:32;10.50;99.90
21487;DHT22;10905;50.822;4.336;2024-03-08T12:07:02;10.60;99.90
21487;DHT22;10905;50.822;4.336;2024-03-08T12:09:31;10.70;99.90
21487;DHT22;10905;50.822;4.336;2024-03-08T12:11:58;10.70;99.90
21487;DHT22;10905;50.822;4.336;2024-03-08T12:14:24;10.80;99.90
21487;DHT22;10905;50.822;4.336;2024-03-08T12:16:51;10.90;99.90
21487;DHT22;10905;50.822;4.336;2024-03-08T12:19:17;11.00;99.90
21487;DHT22;10905;50.822;4.336;2024-03-08T12:21:43;11.10;99.90
21487;DHT22;10905;50.822;4.336;2024-03-08T12:24:16;11.10;99.90
21487;DHT22;10905;50.822;4.336;2024-03-08T12:26:45;11.00;99.90
21487;DHT22;10905;50.822;4.336;2024-03-08T12:29:25;11.00;99.90
21487;DHT22;10905;50.822;4.336;2024-03-08T12:31:58;11.10;99.90
21487;DHT22;10905;50.822;4.336;2024-03-08T12:34:26;11.10;99.90
21487;DHT22;10905;50.822;4.336;2024-03-08T12:36:54;11.10;99.90
21487;DHT22;10905;50.822;4.336;2024-03-08T12:39:21;11.10;99.90
21487;DHT22;10905;50.822;4.336;2024-03-08T12:41:48;11.20;99.90
21487;DHT22;10905;50.822;4.336;2024-03-08T12:44:17;11.30;99.90
21487;DHT22;10905;50.822;4.336;2024-03-08T12:46:44;11.40;99.90
21487;DHT22;10905;50.822;4.336;2024-03-08T12:49:10;11.40;99.90
21487;DHT22;10905;50.822;4.336;2024-03-08T12:51:38;11.50;99.90
21487;DHT22;10905;50.822;4.336;2024-03-08T12:54:05;11.50;99.90
21487;DHT22;10905;50.822;4.336;2024-03-08T12:56:33;11.50;99.90
21487;DHT22;10905;50.822;4.336;2024-03-08T12:59:00;11.50;99.90
21487;DHT22;10905;50.822;4.336;2024-03-08T13:01:27;11.50;99.90
21487;DHT22;10905;50.822;4.336;2024-03-08T13:03:53;11.70;99.90
21487;DHT22;10905;50.822;4.336;2024-03-08T13:06:19;11.70;99.90
21487;DHT22;10905;50.822;4.336;2024-03-08T13:08:52;11.80;99.90
21487;DHT22;10905;50.822;4.336;2024-03-08T13:11:19;11.90;99.90
21487;DHT22;10905;50.822;4.336;2024-03-08T13:13:45;11.90;99.90
21487;DHT22;10905;50.822;4.336;2024-03-08T13:16:11;11.90;99.90
21487;DHT22;10905;50.822;4.336;2024-03-08T13:18:40;11.90;99.90
21487;DHT22;10905;50.822;4.336;2024-03-08T13:21:07;12.00;99.90
21487;DHT22;10905;50.822;4.336;2024-03-08T13:23:35;12.10;99.90
21487;DHT22;10905;50.822;4.336;2024-03-08T13:26:07;12.10;99.90
21487;DHT22;10905;50.822;4.336;2024-03-08T13:28:33;12.10;99.90
21487;DHT22;10905;50.822;4.336;2024-03-08T13:31:04;12.10;99.90
21487;DHT22;10905;50.822;4.336;2024-03-08T13:33:32;12.10;99.90
21487;DHT22;10905;50.822;4.336;2024-03-08T13:36:01;12.10;99.90
21487;DHT22;10905;50.822;4.336;2024-03-08T13:38:27;12.20;99.90
21487;DHT22;10905;50.822;4.336;2024-03-08T13:40:53;12.20;99.90
21487;DHT22;10905;50.822;4.336;2024-03-08T13:43:18;12.20;99.90
21487;DHT22;10905;50.822;4.336;2024-03-08T13:45:44;12.20;99.90
21487;DHT22;10905;50.822;4.336;2024-03-08T13:48:11;12.10;99.90
21487;DHT22;10905;50.822;4.336;2024-03-08T13:50:38;12.20;99.90
21487;DHT22;10905;50.822;4.336;2024-03-08T13:53:04;12.30;99.90
21487;DHT22;10905;50.822;4.336;2024-03-08T13:55:30;12.30;99.90
21487;DHT22;10905;50.822;4.336;2024-03-08T13:57:56;12.50;99.90
21487;DHT22;10905;50.822;4.336;2024-03-08T14:00:25;12.50;99.90
21487;DHT22;10905;50.822;4.336;2024-03-08T14:02:53;12.50;99.90
21487;DHT22;10905;50.822;4.336;2024-03-08T14:05:22;12.40;99.90
21487;DHT22;10905;50.822;4.336;2024-03-08T14:07:47;12.40;99.90
21487;DHT22;10905;50.822;4.336;2024-03-08T14:10:14;12.40;99.90
21487;DHT22;10905;50.822;4.336;2024-03-08T14:12:40;12.50;99.90
21487;DHT22;10905;50.822;4.336;2024-03-08T14:15:08;12.50;99.90
21487;DHT22;10905;50.822;4.336;2024-03-08T14:17:35;12.60;99.90
21487;DHT22;10905;50.822;4.336;2024-03-08T14:20:01;12.60;99.90
21487;DHT22;10905;50.822;4.336;2024-03-08T14:22:26;12.70;99.90
21487;DHT22;10905;50.822;4.336;2024-03-08T14:24:52;12.60;99.90
21487;DHT22;10905;50.822;4.336;2024-03-08T14:27:18;12.60;99.90
21487;DHT22;10905;50.822;4.336;2024-03-08T14:29:44;12.60;99.90
21487;DHT22;10905;50.822;4.336;2024-03-08T14:32:10;12.60;99.90
21487;DHT22;10905;50.822;4.336;2024-03-08T14:34:36;12.70;99.90
21487;DHT22;10905;50.822;4.336;2024-03-08T14:37:02;12.80;99.90
21487;DHT22;10905;50.822;4.336;2024-03-08T14:39:31;12.70;99.90
21487;DHT22;10905;50.822;4.336;2024-03-08T14:41:59;12.70;99.90
21487;DHT22;10905;50.822;4.336;2024-03-08T14:44:25;12.70;99.90
21487;DHT22;10905;50.822;4.336;2024-03-08T14:46:55;12.80;99.90
21487;DHT22;10905;50.822;4.336;2024-03-08T14:49:22;12.90;99.90
21487;DHT22;10905;50.822;4.336;2024-03-08T14:51:48;13.00;99.90
21487;DHT22;10905;50.822;4.336;2024-03-08T14:54:13;13.00;99.90
21487;DHT22;10905;50.822;4.336;2024-03-08T14:56:39;13.10;99.90
21487;DHT22;10905;50.822;4.336;2024-03-08T14:59:08;13.10;99.90
21487;DHT22;10905;50.822;4.336;2024-03-08T15:01:37;13.20;99.90
21487;DHT22;10905;50.822;4.336;2024-03-08T15:04:03;13.20;99.90
21487;DHT22;10905;50.822;4.336;2024-03-08T15:06:35;13.30;99.90
21487;DHT22;10905;50.822;4.336;2024-03-08T15:09:02;13.20;99.90
21487;DHT22;10905;50.822;4.336;2024-03-08T15:11:37;13.20;99.90
21487;DHT22;10905;50.822;4.336;2024-03-08T15:14:05;13.10;99.90
21487;DHT22;10905;50.822;4.336;2024-03-08T15:16:36;13.00;99.90
21487;DHT22;10905;50.822;4.336;2024-03-08T15:19:01;13.10;99.90
21487;DHT22;10905;50.822;4.336;2024-03-08T15:21:27;13.10;99.90
21487;DHT22;10905;50.822;4.336;2024-03-08T15:23:54;13.10;99.90
21487;DHT22;10905;50.822;4.336;2024-03-08T15:26:20;13.10;99.90
21487;DHT22;10905;50.822;4.336;2024-03-08T15:28:45;13.20;99.90
21487;DHT22;10905;50.822;4.336;2024-03-08T15:31:13;13.10;99.90
21487;DHT22;10905;50.822;4.336;2024-03-08T15:33:42;13.20;99.90
21487;DHT22;10905;50.822;4.336;2024-03-08T15:36:11;13.20;99.90
21487;DHT22;10905;50.822;4.336;2024-03-08T15:38:40;13.30;99.90
21487;DHT22;10905;50.822;4.336;2024-03-08T15:41:05;13.30;99.90
21487;DHT22;10905;50.822;4.336;2024-03-08T15:43:35;13.30;99.90
21487;DHT22;10905;50.822;4.336;2024-03-08T15:46:03;13.40;99.90
21487;DHT22;10905;50.822;4.336;2024-03-08T15:48:33;13.30;99.90